Etusivu
METAR-TAF:

METAR-TAF

Lentoasemat :

Destin-Fort Walton Beach Airport

Destin, Florida, Yhdysvallat

Leveyspiiri: 30-23-36N, Pituuspiiri: 086-28-03W, korkeus merenpinnasta: 6 m

Tämänhetkinen sää

Tämä raportti tehtiin 11 minuuttia sitten, kello 14.53 UTC
Tuuli 12 kn pohjoisesta
Lämpötila 21°C
Kosteus 88%
Ilmanpaine 1002 hPa
Näkyvyys: 12.9 km
Pilvistä 600 ft:n korkeudessa

METAR: KDTS 191453Z 36012KT 8SM OVC006 21/19 A2960 RMK AO2 RAB12E25 SLP024 P0000 60000 T02060194 53003

Aika: 10:04 (15:04 UTC)


TAF: puuttuu

Säähavainnot ja -ennusteet yli 4000 lentoasemalta (METAR- ja TAF-raportit).

Käytössä olevat sääasemat on merkitty karttaan keltaisilla ja punaisilla pisteillä.

Aseta hiiri pisteen päälle nähdäksesi sääaseman nimen.

Klikkaa sitten nähdäksesi säähavainnot ja -ennusteet.

Kartan vaihtaminen: klikkaa mustalla rastilla varustettuja vihreitä pisteitä, niin voit zoomata sisään; viivalla varustettua vihreää pistettä, niin voit zoomata ulos tai vihreitä nuolia, niin pääset viereisille kartoille.


METAR-TAF: